sensor_id;sensor_type;location;lat;lon;timestamp;P1;durP1;ratioP1;P2;durP2;ratioP2
69979;SDS011;57318;56.232;43.944;2022-11-20T00:01:09;4.88;;;2.72;;
69979;SDS011;57318;56.232;43.944;2022-11-20T00:03:36;5.75;;;3.13;;
69979;SDS011;57318;56.232;43.944;2022-11-20T00:06:02;4.25;;;2.38;;
69979;SDS011;57318;56.232;43.944;2022-11-20T00:08:34;5.18;;;2.28;;
69979;SDS011;57318;56.232;43.944;2022-11-20T00:11:03;5.97;;;2.50;;
69979;SDS011;57318;56.232;43.944;2022-11-20T00:13:30;10.27;;;3.25;;
69979;SDS011;57318;56.232;43.944;2022-11-20T00:15:57;4.68;;;2.38;;
69979;SDS011;57318;56.232;43.944;2022-11-20T00:18:23;4.65;;;2.60;;
69979;SDS011;57318;56.232;43.944;2022-11-20T00:20:50;6.18;;;3.05;;
69979;SDS011;57318;56.232;43.944;2022-11-20T00:23:15;6.65;;;2.72;;
69979;SDS011;57318;56.232;43.944;2022-11-20T00:25:41;5.03;;;2.40;;
69979;SDS011;57318;56.232;43.944;2022-11-20T00:28:07;8.33;;;3.50;;
69979;SDS011;57318;56.232;43.944;2022-11-20T00:30:32;4.93;;;2.37;;
69979;SDS011;57318;56.232;43.944;2022-11-20T00:32:58;5.87;;;2.90;;
69979;SDS011;57318;56.232;43.944;2022-11-20T00:35:23;10.70;;;3.60;;
69979;SDS011;57318;56.232;43.944;2022-11-20T00:37:49;4.50;;;2.57;;
69979;SDS011;57318;56.232;43.944;2022-11-20T00:40:15;2.40;;;1.42;;
69979;SDS011;57318;56.232;43.944;2022-11-20T00:42:40;6.90;;;2.53;;
69979;SDS011;57318;56.232;43.944;2022-11-20T00:45:06;6.17;;;2.50;;
69979;SDS011;57318;56.232;43.944;2022-11-20T00:47:32;6.03;;;2.65;;
69979;SDS011;57318;56.232;43.944;2022-11-20T00:49:58;10.45;;;3.10;;
69979;SDS011;57318;56.232;43.944;2022-11-20T00:52:23;8.57;;;2.90;;
69979;SDS011;57318;56.232;43.944;2022-11-20T00:54:49;8.60;;;1.90;;
69979;SDS011;57318;56.232;43.944;2022-11-20T00:57:14;4.57;;;2.57;;
69979;SDS011;57318;56.232;43.944;2022-11-20T00:59:40;5.00;;;2.13;;
69979;SDS011;57318;56.232;43.944;2022-11-20T01:02:06;5.73;;;2.70;;
69979;SDS011;57318;56.232;43.944;2022-11-20T01:04:31;7.33;;;2.60;;
69979;SDS011;57318;56.232;43.944;2022-11-20T01:06:57;4.33;;;2.03;;
69979;SDS011;57318;56.232;43.944;2022-11-20T01:09:22;3.70;;;2.57;;
69979;SDS011;57318;56.232;43.944;2022-11-20T01:11:48;8.03;;;3.13;;
69979;SDS011;57318;56.232;43.944;2022-11-20T01:14:15;11.10;;;3.45;;
69979;SDS011;57318;56.232;43.944;2022-11-20T01:16:47;3.15;;;1.48;;
69979;SDS011;57318;56.232;43.944;2022-11-20T01:19:18;5.72;;;2.70;;
69979;SDS011;57318;56.232;43.944;2022-11-20T01:21:45;8.80;;;2.60;;
69979;SDS011;57318;56.232;43.944;2022-11-20T01:24:14;6.55;;;3.03;;
69979;SDS011;57318;56.232;43.944;2022-11-20T01:26:42;8.43;;;3.13;;
69979;SDS011;57318;56.232;43.944;2022-11-20T01:29:11;10.85;;;3.38;;
69979;SDS011;57318;56.232;43.944;2022-11-20T01:31:39;6.05;;;2.85;;
69979;SDS011;57318;56.232;43.944;2022-11-20T01:34:06;5.60;;;2.83;;
69979;SDS011;57318;56.232;43.944;2022-11-20T01:36:35;4.75;;;2.45;;
69979;SDS011;57318;56.232;43.944;2022-11-20T01:39:07;8.27;;;3.15;;
69979;SDS011;57318;56.232;43.944;2022-11-20T01:41:36;7.45;;;3.33;;
69979;SDS011;57318;56.232;43.944;2022-11-20T01:44:21;9.13;;;2.88;;
69979;SDS011;57318;56.232;43.944;2022-11-20T01:47:07;4.55;;;2.08;;
69979;SDS011;57318;56.232;43.944;2022-11-20T01:49:37;5.07;;;3.15;;
69979;SDS011;57318;56.232;43.944;2022-11-20T01:52:11;3.42;;;1.73;;
69979;SDS011;57318;56.232;43.944;2022-11-20T01:54:53;3.80;;;1.95;;
69979;SDS011;57318;56.232;43.944;2022-11-20T01:57:23;6.68;;;3.47;;
69979;SDS011;57318;56.232;43.944;2022-11-20T01:59:54;9.07;;;3.25;;
69979;SDS011;57318;56.232;43.944;2022-11-20T02:02:24;5.40;;;2.75;;
69979;SDS011;57318;56.232;43.944;2022-11-20T06:59:23;7.00;;;1.95;;
69979;SDS011;57318;56.232;43.944;2022-11-20T07:01:48;5.83;;;2.73;;
69979;SDS011;57318;56.232;43.944;2022-11-20T07:04:14;10.53;;;4.80;;
69979;SDS011;57318;56.232;43.944;2022-11-20T07:06:39;4.30;;;2.33;;
69979;SDS011;57318;56.232;43.944;2022-11-20T07:09:05;10.73;;;3.60;;
69979;SDS011;57318;56.232;43.944;2022-11-20T07:11:31;10.40;;;4.07;;
69979;SDS011;57318;56.232;43.944;2022-11-20T07:13:56;7.43;;;2.93;;
69979;SDS011;57318;56.232;43.944;2022-11-20T07:16:22;8.97;;;3.77;;
69979;SDS011;57318;56.232;43.944;2022-11-20T07:18:47;8.13;;;3.35;;
69979;SDS011;57318;56.232;43.944;2022-11-20T07:21:13;8.43;;;3.10;;
69979;SDS011;57318;56.232;43.944;2022-11-20T07:23:39;12.07;;;4.90;;
69979;SDS011;57318;56.232;43.944;2022-11-20T07:26:06;6.03;;;2.47;;
69979;SDS011;57318;56.232;43.944;2022-11-20T07:28:37;11.13;;;3.47;;
69979;SDS011;57318;56.232;43.944;2022-11-20T07:33:30;16.00;;;4.72;;
69979;SDS011;57318;56.232;43.944;2022-11-20T07:35:57;7.15;;;3.47;;
69979;SDS011;57318;56.232;43.944;2022-11-20T07:38:24;9.80;;;3.80;;
69979;SDS011;57318;56.232;43.944;2022-11-20T07:40:53;9.27;;;3.85;;
69979;SDS011;57318;56.232;43.944;2022-11-20T07:43:20;12.93;;;5.03;;
69979;SDS011;57318;56.232;43.944;2022-11-20T07:45:46;7.32;;;3.42;;
69979;SDS011;57318;56.232;43.944;2022-11-20T07:48:13;2.83;;;2.13;;
69979;SDS011;57318;56.232;43.944;2022-11-20T07:50:41;9.65;;;4.00;;
69979;SDS011;57318;56.232;43.944;2022-11-20T07:53:07;12.82;;;4.57;;
69979;SDS011;57318;56.232;43.944;2022-11-20T07:55:33;14.00;;;5.00;;
69979;SDS011;57318;56.232;43.944;2022-11-20T07:57:58;10.60;;;3.90;;
69979;SDS011;57318;56.232;43.944;2022-11-20T08:00:25;9.30;;;3.67;;
69979;SDS011;57318;56.232;43.944;2022-11-20T08:02:51;8.05;;;3.13;;
69979;SDS011;57318;56.232;43.944;2022-11-20T08:05:17;7.67;;;3.40;;
69979;SDS011;57318;56.232;43.944;2022-11-20T08:07:43;6.80;;;3.13;;
69979;SDS011;57318;56.232;43.944;2022-11-20T08:10:10;10.13;;;3.70;;
69979;SDS011;57318;56.232;43.944;2022-11-20T08:12:46;6.20;;;2.95;;
69979;SDS011;57318;56.232;43.944;2022-11-20T08:15:32;7.50;;;3.67;;
69979;SDS011;57318;56.232;43.944;2022-11-20T08:17:59;11.43;;;4.30;;
69979;SDS011;57318;56.232;43.944;2022-11-20T08:20:35;10.90;;;2.63;;
69979;SDS011;57318;56.232;43.944;2022-11-20T08:23:02;12.73;;;4.60;;
69979;SDS011;57318;56.232;43.944;2022-11-20T08:25:30;14.77;;;5.10;;
69979;SDS011;57318;56.232;43.944;2022-11-20T08:28:00;10.65;;;4.85;;
69979;SDS011;57318;56.232;43.944;2022-11-20T08:30:28;12.38;;;5.13;;
69979;SDS011;57318;56.232;43.944;2022-11-20T08:32:54;14.80;;;5.05;;
69979;SDS011;57318;56.232;43.944;2022-11-20T08:35:20;15.95;;;4.65;;
69979;SDS011;57318;56.232;43.944;2022-11-20T08:40:12;11.30;;;4.25;;
69979;SDS011;57318;56.232;43.944;2022-11-20T08:42:45;12.07;;;4.65;;
69979;SDS011;57318;56.232;43.944;2022-11-20T08:45:15;9.43;;;3.80;;
69979;SDS011;57318;56.232;43.944;2022-11-20T08:50:08;5.30;;;2.72;;
69979;SDS011;57318;56.232;43.944;2022-11-20T08:52:37;5.95;;;1.42;;
69979;SDS011;57318;56.232;43.944;2022-11-20T08:55:04;22.60;;;7.82;;
69979;SDS011;57318;56.232;43.944;2022-11-20T08:57:33;19.02;;;5.80;;
69979;SDS011;57318;56.232;43.944;2022-11-20T09:00:00;9.20;;;3.28;;
69979;SDS011;57318;56.232;43.944;2022-11-20T09:02:27;12.18;;;4.68;;
69979;SDS011;57318;56.232;43.944;2022-11-20T09:04:53;14.97;;;5.87;;
69979;SDS011;57318;56.232;43.944;2022-11-20T09:07:19;13.63;;;4.60;;
69979;SDS011;57318;56.232;43.944;2022-11-20T09:12:10;8.70;;;3.45;;
69979;SDS011;57318;56.232;43.944;2022-11-20T09:14:36;10.47;;;4.70;;
69979;SDS011;57318;56.232;43.944;2022-11-20T09:17:02;13.10;;;5.40;;
69979;SDS011;57318;56.232;43.944;2022-11-20T09:19:30;7.68;;;3.05;;
69979;SDS011;57318;56.232;43.944;2022-11-20T09:21:56;6.88;;;3.38;;
69979;SDS011;57318;56.232;43.944;2022-11-20T09:24:22;7.20;;;3.10;;
69979;SDS011;57318;56.232;43.944;2022-11-20T09:26:47;17.33;;;5.43;;
69979;SDS011;57318;56.232;43.944;2022-11-20T09:29:13;13.73;;;5.43;;
69979;SDS011;57318;56.232;43.944;2022-11-20T09:31:38;10.23;;;4.93;;
69979;SDS011;57318;56.232;43.944;2022-11-20T09:34:04;10.70;;;4.23;;
69979;SDS011;57318;56.232;43.944;2022-11-20T09:36:30;16.40;;;4.30;;
69979;SDS011;57318;56.232;43.944;2022-11-20T09:38:55;11.90;;;4.90;;
69979;SDS011;57318;56.232;43.944;2022-11-20T09:50:10;10.27;;;4.55;;
69979;SDS011;57318;56.232;43.944;2022-11-20T09:55:23;15.73;;;5.80;;
69979;SDS011;57318;56.232;43.944;2022-11-20T09:57:51;9.82;;;4.40;;
69979;SDS011;57318;56.232;43.944;2022-11-20T10:02:55;7.80;;;3.65;;
69979;SDS011;57318;56.232;43.944;2022-11-20T10:05:39;13.45;;;5.88;;
69979;SDS011;57318;56.232;43.944;2022-11-20T10:11:05;15.07;;;4.90;;
69979;SDS011;57318;56.232;43.944;2022-11-20T10:25:05;12.77;;;5.10;;
69979;SDS011;57318;56.232;43.944;2022-11-20T10:30:37;17.27;;;5.95;;
69979;SDS011;57318;56.232;43.944;2022-11-20T10:33:17;9.40;;;3.67;;
69979;SDS011;57318;56.232;43.944;2022-11-20T10:35:54;10.05;;;4.07;;
69979;SDS011;57318;56.232;43.944;2022-11-20T10:40:59;11.47;;;5.00;;
69979;SDS011;57318;56.232;43.944;2022-11-20T10:43:46;14.20;;;5.10;;
69979;SDS011;57318;56.232;43.944;2022-11-20T10:46:22;4.97;;;2.80;;
69979;SDS011;57318;56.232;43.944;2022-11-20T10:48:48;6.95;;;3.53;;
69979;SDS011;57318;56.232;43.944;2022-11-20T10:56:31;7.73;;;3.90;;
69979;SDS011;57318;56.232;43.944;2022-11-20T11:04:45;12.95;;;5.45;;
69979;SDS011;57318;56.232;43.944;2022-11-20T11:07:23;9.60;;;3.65;;
69979;SDS011;57318;56.232;43.944;2022-11-20T11:09:55;12.40;;;4.70;;
69979;SDS011;57318;56.232;43.944;2022-11-20T11:12:22;5.53;;;2.47;;
69979;SDS011;57318;56.232;43.944;2022-11-20T11:14:54;5.75;;;3.58;;
69979;SDS011;57318;56.232;43.944;2022-11-20T11:17:31;17.13;;;3.65;;
69979;SDS011;57318;56.232;43.944;2022-11-20T11:24:53;4.38;;;3.03;;
69979;SDS011;57318;56.232;43.944;2022-11-20T11:27:19;8.40;;;3.58;;
69979;SDS011;57318;56.232;43.944;2022-11-20T11:29:45;5.77;;;3.37;;
69979;SDS011;57318;56.232;43.944;2022-11-20T11:34:38;11.05;;;4.20;;
69979;SDS011;57318;56.232;43.944;2022-11-20T11:37:04;16.38;;;5.65;;
69979;SDS011;57318;56.232;43.944;2022-11-20T11:39:38;17.13;;;6.53;;
69979;SDS011;57318;56.232;43.944;2022-11-20T11:42:07;6.03;;;3.13;;
69979;SDS011;57318;56.232;43.944;2022-11-20T11:44:43;7.47;;;3.45;;
69979;SDS011;57318;56.232;43.944;2022-11-20T11:50:08;4.25;;;2.22;;
69979;SDS011;57318;56.232;43.944;2022-11-20T12:00:58;11.30;;;5.10;;
69979;SDS011;57318;56.232;43.944;2022-11-20T12:03:34;11.80;;;4.07;;
69979;SDS011;57318;56.232;43.944;2022-11-20T12:06:08;4.18;;;2.10;;
69979;SDS011;57318;56.232;43.944;2022-11-20T12:08:53;14.52;;;5.60;;
69979;SDS011;57318;56.232;43.944;2022-11-20T12:17:07;10.25;;;4.53;;
69979;SDS011;57318;56.232;43.944;2022-11-20T12:19:36;11.82;;;4.40;;
69979;SDS011;57318;56.232;43.944;2022-11-20T12:30:22;21.88;;;7.43;;
69979;SDS011;57318;56.232;43.944;2022-11-20T12:35:57;3.45;;;1.90;;
69979;SDS011;57318;56.232;43.944;2022-11-20T12:52:56;24.02;;;6.05;;
69979;SDS011;57318;56.232;43.944;2022-11-20T13:01:11;10.38;;;4.53;;
69979;SDS011;57318;56.232;43.944;2022-11-20T13:04:06;4.90;;;2.88;;
69979;SDS011;57318;56.232;43.944;2022-11-20T13:06:40;13.15;;;6.07;;
69979;SDS011;57318;56.232;43.944;2022-11-20T13:09:09;18.13;;;6.45;;
69979;SDS011;57318;56.232;43.944;2022-11-20T13:11:48;15.13;;;5.45;;
69979;SDS011;57318;56.232;43.944;2022-11-20T13:19:45;14.65;;;5.70;;
69979;SDS011;57318;56.232;43.944;2022-11-20T13:22:23;21.30;;;6.40;;
69979;SDS011;57318;56.232;43.944;2022-11-20T13:27:20;13.90;;;5.65;;
69979;SDS011;57318;56.232;43.944;2022-11-20T13:30:33;20.20;;;7.53;;
69979;SDS011;57318;56.232;43.944;2022-11-20T13:32:42;22.52;;;7.93;;
69979;SDS011;57318;56.232;43.944;2022-11-20T13:35:13;28.88;;;8.85;;
69979;SDS011;57318;56.232;43.944;2022-11-20T13:38:00;18.23;;;6.40;;
69979;SDS011;57318;56.232;43.944;2022-11-20T13:40:28;16.05;;;6.45;;
69979;SDS011;57318;56.232;43.944;2022-11-20T13:45:24;13.87;;;4.67;;
69979;SDS011;57318;56.232;43.944;2022-11-20T13:47:52;11.13;;;5.15;;
69979;SDS011;57318;56.232;43.944;2022-11-20T13:50:21;19.48;;;7.10;;
69979;SDS011;57318;56.232;43.944;2022-11-20T14:01:50;14.07;;;5.75;;
69979;SDS011;57318;56.232;43.944;2022-11-20T14:04:18;12.97;;;5.03;;
69979;SDS011;57318;56.232;43.944;2022-11-20T14:06:51;15.57;;;5.82;;
69979;SDS011;57318;56.232;43.944;2022-11-20T14:09:30;14.85;;;6.20;;
69979;SDS011;57318;56.232;43.944;2022-11-20T14:11:57;14.05;;;5.38;;
69979;SDS011;57318;56.232;43.944;2022-11-20T14:14:25;13.27;;;5.40;;
69979;SDS011;57318;56.232;43.944;2022-11-20T14:20:11;15.00;;;5.75;;
69979;SDS011;57318;56.232;43.944;2022-11-20T14:22:39;15.88;;;6.63;;
69979;SDS011;57318;56.232;43.944;2022-11-20T14:27:40;14.20;;;5.77;;
69979;SDS011;57318;56.232;43.944;2022-11-20T14:30:12;15.27;;;6.10;;
69979;SDS011;57318;56.232;43.944;2022-11-20T14:32:42;10.20;;;4.15;;
69979;SDS011;57318;56.232;43.944;2022-11-20T14:35:13;15.52;;;5.32;;
69979;SDS011;57318;56.232;43.944;2022-11-20T14:37:46;15.40;;;6.10;;
69979;SDS011;57318;56.232;43.944;2022-11-20T14:42:48;13.40;;;5.72;;
69979;SDS011;57318;56.232;43.944;2022-11-20T14:45:13;8.50;;;4.23;;
69979;SDS011;57318;56.232;43.944;2022-11-20T14:47:40;16.08;;;5.75;;
69979;SDS011;57318;56.232;43.944;2022-11-20T14:50:12;13.40;;;5.75;;
69979;SDS011;57318;56.232;43.944;2022-11-20T14:52:52;14.73;;;6.63;;
69979;SDS011;57318;56.232;43.944;2022-11-20T14:55:30;15.35;;;5.80;;
69979;SDS011;57318;56.232;43.944;2022-11-20T14:58:04;15.63;;;6.90;;
69979;SDS011;57318;56.232;43.944;2022-11-20T15:01:03;12.40;;;5.35;;
69979;SDS011;57318;56.232;43.944;2022-11-20T15:03:35;16.58;;;5.88;;
69979;SDS011;57318;56.232;43.944;2022-11-20T15:06:05;15.05;;;6.10;;
69979;SDS011;57318;56.232;43.944;2022-11-20T15:08:36;14.40;;;5.40;;
69979;SDS011;57318;56.232;43.944;2022-11-20T15:11:02;9.80;;;4.20;;
69979;SDS011;57318;56.232;43.944;2022-11-20T15:13:32;17.50;;;6.60;;
69979;SDS011;57318;56.232;43.944;2022-11-20T15:16:02;16.98;;;6.90;;
69979;SDS011;57318;56.232;43.944;2022-11-20T15:18:38;18.67;;;6.63;;
69979;SDS011;57318;56.232;43.944;2022-11-20T15:21:13;15.30;;;5.90;;
69979;SDS011;57318;56.232;43.944;2022-11-20T15:23:41;16.70;;;6.53;;
69979;SDS011;57318;56.232;43.944;2022-11-20T15:26:23;9.73;;;3.88;;
69979;SDS011;57318;56.232;43.944;2022-11-20T15:28:51;12.18;;;4.47;;
69979;SDS011;57318;56.232;43.944;2022-11-20T15:31:19;15.55;;;5.88;;
69979;SDS011;57318;56.232;43.944;2022-11-20T15:33:47;13.05;;;4.75;;
69979;SDS011;57318;56.232;43.944;2022-11-20T15:36:14;13.52;;;5.10;;
69979;SDS011;57318;56.232;43.944;2022-11-20T15:38:40;9.73;;;3.42;;
69979;SDS011;57318;56.232;43.944;2022-11-20T15:41:10;14.52;;;6.05;;
69979;SDS011;57318;56.232;43.944;2022-11-20T15:43:36;5.78;;;3.00;;
69979;SDS011;57318;56.232;43.944;2022-11-20T15:46:12;19.33;;;5.88;;
69979;SDS011;57318;56.232;43.944;2022-11-20T15:51:14;13.85;;;4.80;;
69979;SDS011;57318;56.232;43.944;2022-11-20T15:53:43;16.95;;;6.00;;
69979;SDS011;57318;56.232;43.944;2022-11-20T15:56:11;11.98;;;4.50;;
69979;SDS011;57318;56.232;43.944;2022-11-20T15:58:38;13.55;;;5.55;;
69979;SDS011;57318;56.232;43.944;2022-11-20T16:01:04;15.38;;;4.85;;
69979;SDS011;57318;56.232;43.944;2022-11-20T16:03:31;17.23;;;5.80;;
69979;SDS011;57318;56.232;43.944;2022-11-20T16:05:58;12.10;;;5.03;;
69979;SDS011;57318;56.232;43.944;2022-11-20T16:08:24;11.35;;;5.32;;
69979;SDS011;57318;56.232;43.944;2022-11-20T16:10:49;10.60;;;3.90;;
69979;SDS011;57318;56.232;43.944;2022-11-20T16:13:16;12.00;;;5.17;;
69979;SDS011;57318;56.232;43.944;2022-11-20T16:16:06;10.82;;;4.38;;
69979;SDS011;57318;56.232;43.944;2022-11-20T16:18:58;5.95;;;3.03;;
69979;SDS011;57318;56.232;43.944;2022-11-20T16:21:26;12.43;;;4.75;;
69979;SDS011;57318;56.232;43.944;2022-11-20T16:23:57;11.98;;;4.30;;
69979;SDS011;57318;56.232;43.944;2022-11-20T16:26:26;8.93;;;3.88;;
69979;SDS011;57318;56.232;43.944;2022-11-20T16:28:53;10.43;;;3.72;;
69979;SDS011;57318;56.232;43.944;2022-11-20T16:31:19;12.80;;;5.43;;
69979;SDS011;57318;56.232;43.944;2022-11-20T16:36:18;10.32;;;4.50;;
69979;SDS011;57318;56.232;43.944;2022-11-20T16:38:45;12.05;;;5.30;;
69979;SDS011;57318;56.232;43.944;2022-11-20T16:41:11;9.13;;;4.47;;
69979;SDS011;57318;56.232;43.944;2022-11-20T16:43:47;14.23;;;4.93;;
69979;SDS011;57318;56.232;43.944;2022-11-20T16:46:15;10.15;;;4.10;;
69979;SDS011;57318;56.232;43.944;2022-11-20T16:49:08;13.85;;;5.65;;
69979;SDS011;57318;56.232;43.944;2022-11-20T16:51:35;12.48;;;4.75;;
69979;SDS011;57318;56.232;43.944;2022-11-20T16:54:04;11.73;;;4.80;;
69979;SDS011;57318;56.232;43.944;2022-11-20T16:56:32;10.40;;;3.95;;
69979;SDS011;57318;56.232;43.944;2022-11-20T16:58:58;10.95;;;4.60;;
69979;SDS011;57318;56.232;43.944;2022-11-20T17:01:25;15.65;;;4.82;;
69979;SDS011;57318;56.232;43.944;2022-11-20T17:03:59;14.35;;;4.85;;
69979;SDS011;57318;56.232;43.944;2022-11-20T17:06:27;14.85;;;5.00;;
69979;SDS011;57318;56.232;43.944;2022-11-20T17:08:55;8.10;;;3.90;;
69979;SDS011;57318;56.232;43.944;2022-11-20T17:11:21;11.73;;;5.10;;
69979;SDS011;57318;56.232;43.944;2022-11-20T17:13:48;13.27;;;5.18;;
69979;SDS011;57318;56.232;43.944;2022-11-20T17:16:18;17.23;;;6.40;;
69979;SDS011;57318;56.232;43.944;2022-11-20T17:18:45;11.65;;;4.28;;
69979;SDS011;57318;56.232;43.944;2022-11-20T17:21:12;15.93;;;5.85;;
69979;SDS011;57318;56.232;43.944;2022-11-20T17:23:38;14.95;;;5.78;;
69979;SDS011;57318;56.232;43.944;2022-11-20T17:26:16;13.82;;;4.97;;
69979;SDS011;57318;56.232;43.944;2022-11-20T17:28:46;12.80;;;5.40;;
69979;SDS011;57318;56.232;43.944;2022-11-20T17:31:18;13.32;;;5.45;;
69979;SDS011;57318;56.232;43.944;2022-11-20T17:33:45;9.67;;;4.53;;
69979;SDS011;57318;56.232;43.944;2022-11-20T17:36:12;15.25;;;6.05;;
69979;SDS011;57318;56.232;43.944;2022-11-20T17:38:40;14.63;;;5.78;;
69979;SDS011;57318;56.232;43.944;2022-11-20T17:41:07;11.35;;;4.97;;
69979;SDS011;57318;56.232;43.944;2022-11-20T17:43:37;17.83;;;6.32;;
69979;SDS011;57318;56.232;43.944;2022-11-20T17:46:07;14.15;;;5.07;;
69979;SDS011;57318;56.232;43.944;2022-11-20T17:48:35;15.65;;;5.80;;
69979;SDS011;57318;56.232;43.944;2022-11-20T17:51:02;14.32;;;5.78;;
69979;SDS011;57318;56.232;43.944;2022-11-20T17:53:34;12.40;;;4.55;;
69979;SDS011;57318;56.232;43.944;2022-11-20T17:56:06;13.20;;;5.07;;
69979;SDS011;57318;56.232;43.944;2022-11-20T17:58:52;14.85;;;5.28;;
69979;SDS011;57318;56.232;43.944;2022-11-20T18:01:24;12.20;;;5.28;;
69979;SDS011;57318;56.232;43.944;2022-11-20T18:03:50;11.15;;;4.95;;
69979;SDS011;57318;56.232;43.944;2022-11-20T18:06:20;7.47;;;3.27;;
69979;SDS011;57318;56.232;43.944;2022-11-20T18:08:48;13.80;;;4.47;;
69979;SDS011;57318;56.232;43.944;2022-11-20T18:13:53;13.32;;;5.72;;
69979;SDS011;57318;56.232;43.944;2022-11-20T18:16:49;12.23;;;5.00;;
69979;SDS011;57318;56.232;43.944;2022-11-20T18:19:19;10.88;;;5.15;;
69979;SDS011;57318;56.232;43.944;2022-11-20T18:21:48;13.95;;;4.70;;
69979;SDS011;57318;56.232;43.944;2022-11-20T18:24:14;8.87;;;3.87;;
69979;SDS011;57318;56.232;43.944;2022-11-20T18:26:40;10.82;;;4.78;;
69979;SDS011;57318;56.232;43.944;2022-11-20T18:29:06;12.17;;;4.50;;
69979;SDS011;57318;56.232;43.944;2022-11-20T18:31:31;13.07;;;4.80;;
69979;SDS011;57318;56.232;43.944;2022-11-20T18:33:57;12.93;;;5.37;;
69979;SDS011;57318;56.232;43.944;2022-11-20T18:36:24;14.55;;;4.70;;
69979;SDS011;57318;56.232;43.944;2022-11-20T18:38:52;13.07;;;5.20;;
69979;SDS011;57318;56.232;43.944;2022-11-20T18:41:21;9.63;;;4.35;;
69979;SDS011;57318;56.232;43.944;2022-11-20T18:44:11;11.15;;;4.60;;
69979;SDS011;57318;56.232;43.944;2022-11-20T18:46:57;13.32;;;5.35;;
69979;SDS011;57318;56.232;43.944;2022-11-20T18:49:23;16.73;;;5.70;;
69979;SDS011;57318;56.232;43.944;2022-11-20T18:51:48;11.73;;;4.68;;
69979;SDS011;57318;56.232;43.944;2022-11-20T18:54:14;19.55;;;6.20;;
69979;SDS011;57318;56.232;43.944;2022-11-20T18:56:40;16.47;;;5.43;;
69979;SDS011;57318;56.232;43.944;2022-11-20T18:59:06;14.10;;;5.00;;
69979;SDS011;57318;56.232;43.944;2022-11-20T19:01:35;13.52;;;5.22;;
69979;SDS011;57318;56.232;43.944;2022-11-20T19:04:08;18.92;;;5.45;;
69979;SDS011;57318;56.232;43.944;2022-11-20T19:06:34;14.30;;;5.00;;
69979;SDS011;57318;56.232;43.944;2022-11-20T19:09:01;9.07;;;4.35;;
69979;SDS011;57318;56.232;43.944;2022-11-20T19:11:29;13.30;;;5.22;;
69979;SDS011;57318;56.232;43.944;2022-11-20T19:13:55;15.13;;;5.20;;
69979;SDS011;57318;56.232;43.944;2022-11-20T19:16:20;17.67;;;5.50;;
69979;SDS011;57318;56.232;43.944;2022-11-20T19:18:47;11.98;;;5.38;;
69979;SDS011;57318;56.232;43.944;2022-11-20T19:23:41;11.05;;;4.65;;
69979;SDS011;57318;56.232;43.944;2022-11-20T19:26:07;14.48;;;5.60;;
69979;SDS011;57318;56.232;43.944;2022-11-20T19:28:35;15.82;;;5.97;;
69979;SDS011;57318;56.232;43.944;2022-11-20T19:31:04;16.52;;;5.53;;
69979;SDS011;57318;56.232;43.944;2022-11-20T19:33:32;13.77;;;6.00;;
69979;SDS011;57318;56.232;43.944;2022-11-20T19:38:44;14.77;;;5.95;;
69979;SDS011;57318;56.232;43.944;2022-11-20T19:41:11;17.23;;;5.25;;
69979;SDS011;57318;56.232;43.944;2022-11-20T19:46:03;13.00;;;4.95;;
69979;SDS011;57318;56.232;43.944;2022-11-20T19:48:29;11.23;;;4.50;;
69979;SDS011;57318;56.232;43.944;2022-11-20T19:50:56;15.63;;;5.72;;
69979;SDS011;57318;56.232;43.944;2022-11-20T19:53:22;14.80;;;5.73;;
69979;SDS011;57318;56.232;43.944;2022-11-20T19:55:54;14.10;;;4.70;;
69979;SDS011;57318;56.232;43.944;2022-11-20T19:58:24;10.95;;;4.00;;
69979;SDS011;57318;56.232;43.944;2022-11-20T20:00:52;13.10;;;4.85;;
69979;SDS011;57318;56.232;43.944;2022-11-20T20:03:18;13.05;;;4.90;;
69979;SDS011;57318;56.232;43.944;2022-11-20T20:05:44;13.23;;;5.47;;
69979;SDS011;57318;56.232;43.944;2022-11-20T20:08:10;12.43;;;5.35;;
69979;SDS011;57318;56.232;43.944;2022-11-20T20:10:36;15.43;;;5.22;;
69979;SDS011;57318;56.232;43.944;2022-11-20T20:13:02;14.60;;;5.32;;
69979;SDS011;57318;56.232;43.944;2022-11-20T20:15:28;15.75;;;5.82;;
69979;SDS011;57318;56.232;43.944;2022-11-20T20:17:54;17.02;;;5.60;;
69979;SDS011;57318;56.232;43.944;2022-11-20T20:20:20;15.20;;;5.47;;
69979;SDS011;57318;56.232;43.944;2022-11-20T20:22:46;22.13;;;5.72;;
69979;SDS011;57318;56.232;43.944;2022-11-20T20:25:12;12.43;;;5.43;;
69979;SDS011;57318;56.232;43.944;2022-11-20T20:27:38;19.83;;;6.57;;
69979;SDS011;57318;56.232;43.944;2022-11-20T20:30:05;15.93;;;5.23;;
69979;SDS011;57318;56.232;43.944;2022-11-20T20:32:32;17.88;;;5.93;;
69979;SDS011;57318;56.232;43.944;2022-11-20T20:34:58;14.57;;;6.40;;
69979;SDS011;57318;56.232;43.944;2022-11-20T20:37:24;16.17;;;6.33;;
69979;SDS011;57318;56.232;43.944;2022-11-20T20:39:50;18.58;;;6.78;;
69979;SDS011;57318;56.232;43.944;2022-11-20T20:42:15;22.30;;;7.10;;
69979;SDS011;57318;56.232;43.944;2022-11-20T20:44:41;16.02;;;6.22;;
69979;SDS011;57318;56.232;43.944;2022-11-20T20:47:32;14.18;;;5.47;;
69979;SDS011;57318;56.232;43.944;2022-11-20T20:50:00;14.77;;;5.93;;
69979;SDS011;57318;56.232;43.944;2022-11-20T20:52:28;20.90;;;6.65;;
69979;SDS011;57318;56.232;43.944;2022-11-20T20:54:54;16.83;;;6.23;;
69979;SDS011;57318;56.232;43.944;2022-11-20T20:57:21;24.17;;;7.10;;
69979;SDS011;57318;56.232;43.944;2022-11-20T20:59:50;19.20;;;6.53;;
69979;SDS011;57318;56.232;43.944;2022-11-20T21:02:17;20.55;;;6.93;;
69979;SDS011;57318;56.232;43.944;2022-11-20T21:04:45;19.20;;;6.13;;
69979;SDS011;57318;56.232;43.944;2022-11-20T21:07:11;17.60;;;6.83;;
69979;SDS011;57318;56.232;43.944;2022-11-20T21:09:36;17.95;;;6.65;;
69979;SDS011;57318;56.232;43.944;2022-11-20T21:12:02;21.30;;;7.63;;
69979;SDS011;57318;56.232;43.944;2022-11-20T21:14:29;15.00;;;6.45;;
69979;SDS011;57318;56.232;43.944;2022-11-20T21:16:55;19.45;;;7.07;;
69979;SDS011;57318;56.232;43.944;2022-11-20T21:19:20;20.27;;;7.60;;
69979;SDS011;57318;56.232;43.944;2022-11-20T21:21:46;16.73;;;6.87;;
69979;SDS011;57318;56.232;43.944;2022-11-20T21:24:25;23.98;;;7.35;;
69979;SDS011;57318;56.232;43.944;2022-11-20T21:26:54;19.13;;;7.10;;
69979;SDS011;57318;56.232;43.944;2022-11-20T21:29:21;21.10;;;8.57;;
69979;SDS011;57318;56.232;43.944;2022-11-20T21:31:48;15.93;;;7.30;;
69979;SDS011;57318;56.232;43.944;2022-11-20T21:34:15;17.55;;;7.47;;
69979;SDS011;57318;56.232;43.944;2022-11-20T21:36:41;24.15;;;7.57;;
69979;SDS011;57318;56.232;43.944;2022-11-20T21:39:08;23.27;;;7.50;;
69979;SDS011;57318;56.232;43.944;2022-11-20T21:41:34;20.95;;;7.30;;
69979;SDS011;57318;56.232;43.944;2022-11-20T21:44:01;18.92;;;7.93;;
69979;SDS011;57318;56.232;43.944;2022-11-20T21:46:31;21.35;;;8.63;;
69979;SDS011;57318;56.232;43.944;2022-11-20T21:49:02;25.05;;;8.48;;
69979;SDS011;57318;56.232;43.944;2022-11-20T21:51:28;20.88;;;8.15;;
69979;SDS011;57318;56.232;43.944;2022-11-20T21:53:54;23.30;;;8.55;;
69979;SDS011;57318;56.232;43.944;2022-11-20T21:56:21;26.52;;;9.15;;
69979;SDS011;57318;56.232;43.944;2022-11-20T21:58:49;24.90;;;8.60;;
69979;SDS011;57318;56.232;43.944;2022-11-20T22:01:37;24.17;;;8.90;;
69979;SDS011;57318;56.232;43.944;2022-11-20T22:04:03;24.27;;;8.73;;
69979;SDS011;57318;56.232;43.944;2022-11-20T22:06:32;21.52;;;9.38;;